createdAt,value
2023-01-28T00:01:36.021Z,85.00
2023-01-28T00:04:04.563Z,85.10
2023-01-28T00:06:33.219Z,85.30
2023-01-28T00:09:01.512Z,85.20
2023-01-28T00:11:30.519Z,85.30
2023-01-28T00:13:58.882Z,85.40
2023-01-28T00:16:30.366Z,85.40
2023-01-28T00:18:58.530Z,85.50
2023-01-28T00:21:26.749Z,85.40
2023-01-28T00:23:57.477Z,85.50
2023-01-28T00:26:26.633Z,85.40
2023-01-28T00:28:55.022Z,85.40
2023-01-28T00:31:26.218Z,85.30
2023-01-28T00:33:57.378Z,85.40
2023-01-28T00:36:27.784Z,85.50
2023-01-28T00:38:57.899Z,85.60
2023-01-28T00:41:28.438Z,85.70
2023-01-28T00:43:57.115Z,85.60
2023-01-28T00:46:27.429Z,85.70
2023-01-28T00:48:58.025Z,85.60
2023-01-28T00:51:26.299Z,85.70
2023-01-28T00:53:54.581Z,85.90
2023-01-28T00:56:22.879Z,85.90
2023-01-28T00:58:51.109Z,85.70
2023-01-28T01:01:22.813Z,85.70
2023-01-28T01:03:57.484Z,85.80
2023-01-28T01:06:27.428Z,85.60
2023-01-28T01:08:55.717Z,85.60
2023-01-28T01:11:24.833Z,85.50
2023-01-28T01:13:54.966Z,85.60
2023-01-28T01:16:24.118Z,85.60
2023-01-28T01:18:54.085Z,85.50
2023-01-28T01:21:25.097Z,85.30
2023-01-28T01:23:55.062Z,85.50
2023-01-28T01:26:23.658Z,85.70
2023-01-28T01:28:52.708Z,85.70
2023-01-28T01:31:23.040Z,85.70
2023-01-28T01:33:53.006Z,85.70
2023-01-28T01:36:22.284Z,85.70
2023-01-28T01:38:56.395Z,85.70
2023-01-28T01:41:28.475Z,85.90
2023-01-28T01:43:58.649Z,85.60
2023-01-28T01:46:37.447Z,85.80
2023-01-28T01:49:16.445Z,85.90
2023-01-28T01:51:47.551Z,85.70
2023-01-28T01:54:18.715Z,85.70
2023-01-28T01:56:50.958Z,85.70
2023-01-28T01:59:23.747Z,85.70
2023-01-28T02:01:52.418Z,85.70
2023-01-28T02:04:24.419Z,85.70
2023-01-28T02:06:53.843Z,85.50
2023-01-28T02:09:29.503Z,85.60
2023-01-28T02:12:01.186Z,85.60
2023-01-28T02:14:32.007Z,85.70
2023-01-28T02:17:02.064Z,85.60
2023-01-28T02:19:36.071Z,85.70
2023-01-28T02:22:28.967Z,85.60
2023-01-28T02:25:20.626Z,85.70
2023-01-28T02:28:25.025Z,85.60
2023-01-28T02:30:58.264Z,85.50
2023-01-28T02:33:31.933Z,85.40
2023-01-28T02:36:10.171Z,85.40
2023-01-28T02:38:44.745Z,85.40
2023-01-28T02:41:17.758Z,85.40
2023-01-28T02:43:48.318Z,85.20
2023-01-28T02:46:40.896Z,85.20
2023-01-28T02:49:12.707Z,85.00
2023-01-28T02:51:59.853Z,85.30
2023-01-28T02:54:38.658Z,85.30
2023-01-28T02:57:19.602Z,85.00
2023-01-28T02:59:55.655Z,84.90
2023-01-28T03:02:30.323Z,85.00
2023-01-28T03:05:04.573Z,85.20
2023-01-28T03:07:36.998Z,85.20
2023-01-28T03:10:07.894Z,85.20
2023-01-28T03:12:54.870Z,85.30
2023-01-28T03:15:46.634Z,85.30
2023-01-28T03:18:38.522Z,85.30
2023-01-28T03:21:29.065Z,85.20
2023-01-28T03:24:18.032Z,85.30
2023-01-28T03:27:15.067Z,85.30
2023-01-28T03:30:05.150Z,85.10
2023-01-28T03:32:54.163Z,85.00
2023-01-28T03:35:43.720Z,85.00
2023-01-28T03:38:21.179Z,85.00
2023-01-28T03:40:54.324Z,85.20
2023-01-28T03:43:23.198Z,85.00
2023-01-28T03:45:52.638Z,84.90
2023-01-28T03:48:25.438Z,85.00
2023-01-28T03:50:56.195Z,85.10
2023-01-28T03:53:26.612Z,85.00
2023-01-28T03:55:57.672Z,84.90
2023-01-28T03:58:46.463Z,85.10
2023-01-28T04:01:15.987Z,85.00
2023-01-28T04:03:46.024Z,85.00
2023-01-28T04:06:18.121Z,85.20
2023-01-28T04:09:07.238Z,85.00
2023-01-28T04:11:50.963Z,84.90
2023-01-28T04:14:25.828Z,85.00
2023-01-28T04:17:07.496Z,85.00
2023-01-28T04:19:38.276Z,84.90
2023-01-28T04:22:11.191Z,85.10
2023-01-28T04:24:41.079Z,85.20
2023-01-28T04:27:10.011Z,85.20
2023-01-28T04:29:38.506Z,85.20
2023-01-28T04:32:25.632Z,85.30
2023-01-28T04:35:18.053Z,85.30
2023-01-28T04:37:56.437Z,85.40
2023-01-28T04:40:42.945Z,85.40
2023-01-28T04:43:14.796Z,85.20
2023-01-28T04:45:55.120Z,85.30
2023-01-28T04:48:42.971Z,85.30
2023-01-28T04:51:24.145Z,85.30
2023-01-28T04:54:18.275Z,84.90
2023-01-28T04:56:46.531Z,85.00
2023-01-28T04:59:15.368Z,85.20
2023-01-28T05:01:44.705Z,85.30
2023-01-28T05:04:13.266Z,85.10
2023-01-28T05:06:43.127Z,85.20
2023-01-28T05:09:17.852Z,85.20
2023-01-28T05:11:46.340Z,85.00
2023-01-28T05:14:15.991Z,85.20
2023-01-28T05:16:51.095Z,85.20
2023-01-28T05:19:20.726Z,85.10
2023-01-28T05:21:50.401Z,85.00
2023-01-28T05:24:36.474Z,85.20
2023-01-28T05:27:05.564Z,85.10
2023-01-28T05:29:34.601Z,85.20
2023-01-28T05:32:03.163Z,85.30
2023-01-28T05:34:32.641Z,85.40
2023-01-28T05:37:09.196Z,85.30
2023-01-28T05:39:39.260Z,85.40
2023-01-28T05:42:07.621Z,85.50
2023-01-28T05:44:39.311Z,85.50
2023-01-28T05:47:25.931Z,85.50
2023-01-28T05:50:03.820Z,85.40
2023-01-28T05:52:52.108Z,85.60
2023-01-28T05:55:28.261Z,85.50
2023-01-28T05:57:56.938Z,85.50
2023-01-28T06:00:27.646Z,85.60
2023-01-28T06:02:56.333Z,85.50
2023-01-28T06:05:25.470Z,85.60
2023-01-28T06:07:55.557Z,85.60
2023-01-28T06:10:23.831Z,85.70
2023-01-28T06:12:52.085Z,85.60
2023-01-28T06:15:37.780Z,85.50
2023-01-28T06:18:35.378Z,85.40
2023-01-28T06:21:03.772Z,85.40
2023-01-28T06:23:33.717Z,85.40
2023-01-28T06:26:02.240Z,85.60
2023-01-28T06:28:30.712Z,85.30
2023-01-28T06:30:59.105Z,85.20
2023-01-28T06:33:29.076Z,85.20
2023-01-28T06:35:57.544Z,85.10
2023-01-28T06:38:26.052Z,85.00
2023-01-28T06:40:56.409Z,84.90
2023-01-28T06:43:27.694Z,84.90
2023-01-28T06:45:56.168Z,84.90
2023-01-28T06:48:24.882Z,84.90
2023-01-28T06:50:53.198Z,84.90
2023-01-28T06:53:22.262Z,84.70
2023-01-28T06:55:50.968Z,84.80
2023-01-28T06:58:20.666Z,84.70
2023-01-28T07:00:49.034Z,84.90
2023-01-28T07:03:17.712Z,84.90
2023-01-28T07:05:46.063Z,84.80
2023-01-28T07:08:14.385Z,84.90
2023-01-28T07:10:42.658Z,85.20
2023-01-28T07:13:11.176Z,85.00
2023-01-28T07:15:40.825Z,85.00
2023-01-28T07:18:09.014Z,84.90
2023-01-28T07:20:37.332Z,85.00
2023-01-28T07:23:05.696Z,85.10
2023-01-28T07:25:34.068Z,85.10
2023-01-28T07:28:02.443Z,85.20
2023-01-28T07:30:30.704Z,85.10
2023-01-28T07:33:00.963Z,85.00
2023-01-28T07:35:29.843Z,85.20
2023-01-28T07:37:59.960Z,85.00
2023-01-28T07:40:29.098Z,85.10
2023-01-28T07:42:57.459Z,85.10
2023-01-28T07:45:28.811Z,85.20
2023-01-28T07:47:58.126Z,85.20
2023-01-28T07:50:30.581Z,85.10
2023-01-28T07:53:00.030Z,85.60
2023-01-28T07:55:31.355Z,85.60
2023-01-28T07:58:08.313Z,86.00
2023-01-28T08:00:38.550Z,85.40
2023-01-28T08:03:16.332Z,85.90
2023-01-28T08:05:50.307Z,86.40
2023-01-28T08:08:25.837Z,85.60
2023-01-28T08:10:54.730Z,85.30
2023-01-28T08:13:24.242Z,85.90
2023-01-28T08:15:57.342Z,85.70
2023-01-28T08:18:26.087Z,85.20
2023-01-28T08:20:59.162Z,86.40
2023-01-28T08:23:37.488Z,86.00
2023-01-28T08:26:07.671Z,86.40
2023-01-28T08:28:36.604Z,86.40
2023-01-28T08:31:09.435Z,86.30
2023-01-28T08:33:40.956Z,85.90
2023-01-28T08:36:13.528Z,85.90
2023-01-28T08:38:59.125Z,85.90
2023-01-28T08:41:32.215Z,85.60
2023-01-28T08:44:01.475Z,85.80
2023-01-28T08:46:31.464Z,86.40
2023-01-28T08:49:06.120Z,86.30
2023-01-28T08:51:36.528Z,86.40
2023-01-28T08:54:05.703Z,86.00
2023-01-28T08:56:35.018Z,85.90
2023-01-28T08:59:06.421Z,85.70
2023-01-28T09:01:35.361Z,85.90
2023-01-28T09:04:04.304Z,86.30
2023-01-28T09:06:35.269Z,86.00
2023-01-28T09:09:09.062Z,86.10
2023-01-28T09:11:38.140Z,86.40
2023-01-28T09:14:19.457Z,86.10
2023-01-28T09:16:48.451Z,85.20
2023-01-28T09:19:17.362Z,85.90
2023-01-28T09:21:53.160Z,86.30
2023-01-28T09:24:31.243Z,86.10
2023-01-28T09:27:00.816Z,86.10
2023-01-28T09:29:29.883Z,86.10
2023-01-28T09:32:09.195Z,86.00
2023-01-28T09:34:40.579Z,85.80
2023-01-28T09:37:15.742Z,87.50
2023-01-28T09:39:49.199Z,86.40
2023-01-28T09:42:48.928Z,86.20
2023-01-28T09:45:29.979Z,85.20
2023-01-28T09:48:04.601Z,85.70
2023-01-28T09:50:38.754Z,85.60
2023-01-28T09:53:18.400Z,85.60
2023-01-28T09:55:53.397Z,84.50
2023-01-28T09:58:28.857Z,85.90
2023-01-28T10:01:06.305Z,85.60
2023-01-28T10:03:48.621Z,85.30
2023-01-28T10:06:22.100Z,85.70
2023-01-28T10:09:23.498Z,85.60
2023-01-28T10:12:09.271Z,85.60
2023-01-28T10:15:05.508Z,85.70
2023-01-28T10:17:48.150Z,85.70
2023-01-28T10:20:26.229Z,84.90
2023-01-28T10:23:08.238Z,85.70
2023-01-28T10:26:01.911Z,85.00
2023-01-28T10:28:33.050Z,85.70
2023-01-28T10:31:01.976Z,86.30
2023-01-28T10:33:38.698Z,85.90
2023-01-28T10:36:13.827Z,85.40
2023-01-28T10:38:43.136Z,86.10
2023-01-28T10:41:21.542Z,86.50
2023-01-28T10:44:08.203Z,85.70
2023-01-28T10:46:40.210Z,86.20
2023-01-28T10:49:21.216Z,85.90
2023-01-28T10:51:56.729Z,85.70
2023-01-28T10:54:27.611Z,85.40
2023-01-28T10:57:00.657Z,85.70
2023-01-28T10:59:36.007Z,86.10
2023-01-28T11:02:10.966Z,85.80
2023-01-28T11:05:02.100Z,86.00
2023-01-28T11:07:32.120Z,85.40
2023-01-28T11:10:29.135Z,84.40
2023-01-28T11:13:02.137Z,85.50
2023-01-28T11:15:34.615Z,85.00
2023-01-28T11:18:06.461Z,85.40
2023-01-28T11:20:43.573Z,85.40
2023-01-28T11:23:28.341Z,85.30
2023-01-28T11:26:09.750Z,84.60
2023-01-28T11:28:47.411Z,84.70
2023-01-28T11:31:35.668Z,83.70
2023-01-28T11:34:47.506Z,85.10
2023-01-28T11:37:37.352Z,84.00
2023-01-28T11:40:22.489Z,86.30
2023-01-28T11:43:00.096Z,84.90
2023-01-28T11:45:41.310Z,85.00
2023-01-28T11:48:30.769Z,85.70
2023-01-28T11:51:08.156Z,84.70
2023-01-28T11:53:56.968Z,84.80
2023-01-28T11:56:45.971Z,84.40
2023-01-28T11:59:54.315Z,84.30
2023-01-28T12:03:07.076Z,85.10
2023-01-28T12:09:35.981Z,83.80
2023-01-28T12:12:21.715Z,84.80
2023-01-28T12:15:21.059Z,84.30
2023-01-28T12:18:04.543Z,84.30
2023-01-28T12:20:40.907Z,84.30
2023-01-28T12:23:33.188Z,85.00
2023-01-28T12:26:37.836Z,84.20
2023-01-28T12:29:25.085Z,84.60
2023-01-28T12:32:11.579Z,84.50
2023-01-28T12:35:11.036Z,84.10
2023-01-28T12:37:51.720Z,84.10
2023-01-28T12:40:48.140Z,84.30
2023-01-28T12:43:29.964Z,84.30
2023-01-28T12:46:06.847Z,84.00
2023-01-28T12:48:49.338Z,84.90
2023-01-28T12:51:26.512Z,83.20
2023-01-28T12:54:04.232Z,84.30
2023-01-28T12:56:41.625Z,83.80
2023-01-28T12:59:17.290Z,83.40
2023-01-28T13:02:02.370Z,83.90
2023-01-28T13:04:40.045Z,83.40
2023-01-28T13:07:15.499Z,82.80
2023-01-28T13:09:53.535Z,84.40
2023-01-28T13:12:24.737Z,83.90
2023-01-28T13:14:59.084Z,83.80
2023-01-28T13:17:38.679Z,84.00
2023-01-28T13:20:17.477Z,83.60
2023-01-28T13:23:07.124Z,83.90
2023-01-28T13:25:38.709Z,84.50
2023-01-28T13:28:34.472Z,84.40
2023-01-28T13:31:15.825Z,83.90
2023-01-28T13:33:48.690Z,83.90
2023-01-28T13:36:35.589Z,84.60
2023-01-28T13:39:10.312Z,83.70
2023-01-28T13:41:51.724Z,84.50
2023-01-28T13:44:28.962Z,83.10
2023-01-28T13:47:17.692Z,84.10
2023-01-28T13:49:51.780Z,84.50
2023-01-28T13:52:38.454Z,84.40
2023-01-28T13:55:42.973Z,84.20
2023-01-28T13:58:43.549Z,83.10
2023-01-28T14:01:35.627Z,83.80
2023-01-28T14:04:48.428Z,83.80
2023-01-28T14:07:51.929Z,83.60
2023-01-28T14:10:36.320Z,83.50
2023-01-28T14:13:44.512Z,83.80
2023-01-28T14:16:44.751Z,82.70
2023-01-28T14:19:16.391Z,83.20
2023-01-28T14:22:22.630Z,84.20
2023-01-28T14:25:15.336Z,83.30
2023-01-28T14:28:07.481Z,83.60
2023-01-28T14:31:04.162Z,84.00
2023-01-28T14:33:36.978Z,83.30
2023-01-28T14:36:18.965Z,84.30
2023-01-28T14:38:50.275Z,83.70
2023-01-28T14:41:27.882Z,82.90
2023-01-28T14:44:07.075Z,84.00
2023-01-28T14:46:48.573Z,84.40
2023-01-28T14:49:41.133Z,84.00
2023-01-28T14:52:32.850Z,84.00
2023-01-28T14:55:13.446Z,83.80
2023-01-28T14:57:49.961Z,83.80
2023-01-28T15:00:23.757Z,84.20
2023-01-28T15:02:56.455Z,83.90
2023-01-28T15:05:40.287Z,84.60
2023-01-28T15:08:20.776Z,84.40
2023-01-28T15:11:07.980Z,84.50
2023-01-28T15:13:44.798Z,83.90
2023-01-28T15:16:26.032Z,84.90
2023-01-28T15:19:03.211Z,84.60
2023-01-28T15:21:42.514Z,84.10
2023-01-28T15:24:19.136Z,84.00
2023-01-28T15:26:54.704Z,83.10
2023-01-28T15:29:33.914Z,82.90
2023-01-28T15:32:05.244Z,84.20
2023-01-28T15:34:41.250Z,84.30
2023-01-28T15:37:22.612Z,83.90
2023-01-28T15:40:09.901Z,84.30
2023-01-28T15:42:52.155Z,84.60
2023-01-28T15:45:22.954Z,84.60
2023-01-28T15:47:55.380Z,83.10
2023-01-28T15:50:28.737Z,84.40
2023-01-28T15:53:11.812Z,84.30
2023-01-28T15:55:52.971Z,84.30
2023-01-28T15:58:29.614Z,85.00
2023-01-28T16:01:17.360Z,84.30
2023-01-28T16:03:54.089Z,84.00
2023-01-28T16:06:36.811Z,85.50
2023-01-28T16:09:18.446Z,83.10
2023-01-28T16:12:07.372Z,84.20
2023-01-28T16:14:47.086Z,85.00
2023-01-28T16:17:19.540Z,84.50
2023-01-28T16:19:52.438Z,84.70
2023-01-28T16:22:43.576Z,84.30
2023-01-28T16:25:29.868Z,84.00
2023-01-28T16:27:59.573Z,83.90
2023-01-28T16:30:36.908Z,84.30
2023-01-28T16:33:18.846Z,84.50
2023-01-28T16:36:07.699Z,84.50
2023-01-28T16:38:45.466Z,84.30
2023-01-28T16:41:23.891Z,84.50
2023-01-28T16:43:55.711Z,83.80
2023-01-28T16:46:34.995Z,84.40
2023-01-28T16:49:10.186Z,84.00
2023-01-28T16:51:44.547Z,84.60
2023-01-28T16:54:32.419Z,83.30
2023-01-28T16:57:05.691Z,84.60
2023-01-28T16:59:37.566Z,84.70
2023-01-28T17:02:12.280Z,85.00
2023-01-28T17:04:51.415Z,84.00
2023-01-28T17:07:22.950Z,85.00
2023-01-28T17:09:55.927Z,85.50
2023-01-28T17:12:27.723Z,85.70
2023-01-28T17:15:04.831Z,84.90
2023-01-28T17:17:38.023Z,85.20
2023-01-28T17:20:28.994Z,85.40
2023-01-28T17:23:04.180Z,83.90
2023-01-28T17:25:41.461Z,85.30
2023-01-28T17:28:21.981Z,84.70
2023-01-28T17:30:56.698Z,85.00
2023-01-28T17:33:28.510Z,84.00
2023-01-28T17:36:05.394Z,86.00
2023-01-28T17:38:39.900Z,85.90
2023-01-28T17:41:33.172Z,85.60
2023-01-28T17:44:08.925Z,85.20
2023-01-28T17:46:41.929Z,85.70
2023-01-28T17:49:25.650Z,85.60
2023-01-28T17:52:00.616Z,85.80
2023-01-28T17:54:40.029Z,86.30
2023-01-28T17:57:09.265Z,86.30
2023-01-28T17:59:42.575Z,84.60
2023-01-28T18:02:17.540Z,86.00
2023-01-28T18:04:51.530Z,85.90
2023-01-28T18:07:29.646Z,86.30
2023-01-28T18:09:59.656Z,85.40
2023-01-28T18:12:34.517Z,86.00
2023-01-28T18:15:16.367Z,86.20
2023-01-28T18:17:45.408Z,86.30
2023-01-28T18:20:14.475Z,85.00
2023-01-28T18:22:46.378Z,85.90
2023-01-28T18:25:35.711Z,86.00
2023-01-28T18:28:14.516Z,86.30
2023-01-28T18:31:25.167Z,86.40
2023-01-28T18:33:57.348Z,86.50
2023-01-28T18:36:33.558Z,86.20
2023-01-28T18:39:02.682Z,86.40
2023-01-28T18:41:38.454Z,86.40
2023-01-28T18:44:16.418Z,86.00
2023-01-28T18:46:50.136Z,86.40
2023-01-28T18:49:20.967Z,86.70
2023-01-28T18:51:52.839Z,86.70
2023-01-28T18:54:25.662Z,86.80
2023-01-28T18:57:01.820Z,86.70
2023-01-28T18:59:34.814Z,86.90
2023-01-28T19:02:24.162Z,85.30
2023-01-28T19:05:13.614Z,85.30
2023-01-28T19:07:43.018Z,86.30
2023-01-28T19:10:26.732Z,87.10
2023-01-28T19:13:08.017Z,86.80
2023-01-28T19:15:41.918Z,86.50
2023-01-28T19:18:24.603Z,86.80
2023-01-28T19:20:55.384Z,87.10
2023-01-28T19:23:38.030Z,87.10
2023-01-28T19:26:57.487Z,85.70
2023-01-28T19:29:36.083Z,86.00
2023-01-28T19:32:09.036Z,87.20
2023-01-28T19:35:18.411Z,87.30
2023-01-28T19:38:11.701Z,86.70
2023-01-28T19:41:09.645Z,87.10
2023-01-28T19:43:52.742Z,85.90
2023-01-28T19:49:08.898Z,85.90
2023-01-28T19:51:54.678Z,87.10
2023-01-28T19:54:27.141Z,86.80
2023-01-28T19:59:40.328Z,86.80
2023-01-28T20:02:10.267Z,86.80
2023-01-28T20:04:47.510Z,86.90
2023-01-28T20:07:23.317Z,86.80
2023-01-28T20:09:53.111Z,86.90
2023-01-28T20:12:21.330Z,86.70
2023-01-28T20:14:49.553Z,86.80
2023-01-28T20:17:17.791Z,86.80
2023-01-28T20:19:46.201Z,87.00
2023-01-28T20:22:14.394Z,87.10
2023-01-28T20:24:42.927Z,87.10
2023-01-28T20:27:12.653Z,86.80
2023-01-28T20:29:40.967Z,87.00
2023-01-28T20:32:17.747Z,87.20
2023-01-28T20:34:47.185Z,87.10
2023-01-28T20:37:15.567Z,87.00
2023-01-28T20:39:43.907Z,87.00
2023-01-28T20:42:14.266Z,86.80
2023-01-28T20:44:42.745Z,86.50
2023-01-28T20:47:11.001Z,86.70
2023-01-28T20:49:39.462Z,86.40
2023-01-28T20:52:07.763Z,86.70
2023-01-28T20:54:36.026Z,86.90
2023-01-28T20:57:04.341Z,86.60
2023-01-28T20:59:34.015Z,86.50
2023-01-28T21:02:02.485Z,86.50
2023-01-28T21:04:30.722Z,86.10
2023-01-28T21:06:59.022Z,86.00
2023-01-28T21:09:27.937Z,86.00
2023-01-28T21:11:56.205Z,85.70
2023-01-28T21:14:24.589Z,85.60
2023-01-28T21:16:54.506Z,85.90
2023-01-28T21:19:23.057Z,86.00
2023-01-28T21:21:51.556Z,85.90
2023-01-28T21:24:19.935Z,85.60
2023-01-28T21:26:48.391Z,85.70
2023-01-28T21:29:18.815Z,85.70
2023-01-28T21:31:47.267Z,85.70
2023-01-28T21:34:17.148Z,85.70
2023-01-28T21:36:45.399Z,85.70
2023-01-28T21:39:13.892Z,85.90
2023-01-28T21:41:42.157Z,85.90
2023-01-28T21:44:12.745Z,85.80
2023-01-28T21:46:41.408Z,85.60
2023-01-28T21:49:11.911Z,85.80
2023-01-28T21:51:46.146Z,85.80
2023-01-28T21:54:17.190Z,85.90
2023-01-28T21:56:46.053Z,85.80
2023-01-28T21:59:29.725Z,85.70
2023-01-28T22:01:59.405Z,85.70
2023-01-28T22:04:30.615Z,85.40
2023-01-28T22:07:01.215Z,85.70
2023-01-28T22:09:30.033Z,85.60
2023-01-28T22:11:58.431Z,85.70
2023-01-28T22:14:26.968Z,85.90
2023-01-28T22:16:55.246Z,85.90
2023-01-28T22:19:23.603Z,85.90
2023-01-28T22:21:52.445Z,86.00
2023-01-28T22:24:24.461Z,86.00
2023-01-28T22:26:54.172Z,86.20
2023-01-28T22:29:26.232Z,86.00
2023-01-28T22:31:55.789Z,86.80
2023-01-28T22:34:24.591Z,86.70
2023-01-28T22:36:53.045Z,87.00
2023-01-28T22:39:22.697Z,86.60
2023-01-28T22:41:50.958Z,86.30
2023-01-28T22:44:20.057Z,86.20
2023-01-28T22:46:48.842Z,86.40
2023-01-28T22:49:17.128Z,86.30
2023-01-28T22:51:45.426Z,86.40
2023-01-28T22:54:14.971Z,86.50
2023-01-28T22:56:44.785Z,87.40
2023-01-28T22:59:13.581Z,86.70
2023-01-28T23:01:42.621Z,86.70
2023-01-28T23:04:12.432Z,86.90
2023-01-28T23:06:40.797Z,86.60
2023-01-28T23:09:09.086Z,86.60
2023-01-28T23:11:37.339Z,86.60
2023-01-28T23:14:24.376Z,86.40
2023-01-28T23:17:10.087Z,87.40
2023-01-28T23:19:55.831Z,87.00
2023-01-28T23:22:44.005Z,86.40
2023-01-28T23:25:12.661Z,86.10
2023-01-28T23:27:41.086Z,86.20
2023-01-28T23:30:12.832Z,86.30
2023-01-28T23:32:44.418Z,86.30
2023-01-28T23:35:13.476Z,87.00
2023-01-28T23:37:41.983Z,86.70
2023-01-28T23:40:11.454Z,86.20
2023-01-28T23:42:39.962Z,86.30
2023-01-28T23:45:11.005Z,86.10
2023-01-28T23:47:39.329Z,86.10
2023-01-28T23:50:08.509Z,86.70
2023-01-28T23:52:36.907Z,86.70
2023-01-28T23:55:06.227Z,86.90
2023-01-28T23:57:34.731Z,87.30
